aviador You're here:

GMME Decoded Metar

RABAT in MOROCCO
Report Time2018-02-17 23:30:00
UTC Time2018-02-17 23:42:34
Flight Rules vfr VFR
Wind130° at 03 kt
W.Decomp.*RWY 21: 0.6 kt HW 2.9 kt LCW
W.Rank130° ranks 21
Current wind is below 130° avg. (3.1)
Visibility9999 m
Phenomena:N/A
Clouds:N/A
Expected CloudBase > 800 ft AGL from Temp-Dew spread
CeilingNone
Temp09°C (ISA -6)
Dew Point07°C (87% RH)
AAT7.2°C
QNH1022 hPa
Density Alt-584 ft
Elevation246 ft
Report Wrong Elevation
Raw Report
GMME 172330Z 13003KT 090V170 CAVOK 09/07 Q1022 NOSIG=

Extra information for GMME:More info

Metar Taf Metar & Taf Last 4 Metars F.Rules Stats Wind Profile Meteogram Temp Stats Airport Information Weather charts Add Link Nearby VenuesMetar ALERT Operation Metar Decoded Social comments